sensor_id;sensor_type;location;lat;lon;timestamp;pressure;altitude;pressure_sealevel;temperature;humidity
40285;BME280;25997;50.214;19.354;2023-05-19T00:01:15;98725.38;;;8.91;61.47
40285;BME280;25997;50.214;19.354;2023-05-19T00:04:20;98719.28;;;8.91;61.73
40285;BME280;25997;50.214;19.354;2023-05-19T00:07:27;98715.00;;;8.93;61.64
40285;BME280;25997;50.214;19.354;2023-05-19T00:10:32;98707.72;;;8.87;61.79
40285;BME280;25997;50.214;19.354;2023-05-19T00:13:35;98711.94;;;8.84;61.98
40285;BME280;25997;50.214;19.354;2023-05-19T00:16:38;98699.59;;;8.81;62.07
40285;BME280;25997;50.214;19.354;2023-05-19T00:19:43;98699.47;;;8.78;61.91
40285;BME280;25997;50.214;19.354;2023-05-19T00:22:45;98701.00;;;8.73;62.30
40285;BME280;25997;50.214;19.354;2023-05-19T00:26:06;98705.66;;;8.80;62.24
40285;BME280;25997;50.214;19.354;2023-05-19T00:29:08;98700.56;;;8.83;61.99
40285;BME280;25997;50.214;19.354;2023-05-19T00:32:25;98694.81;;;8.90;62.10
40285;BME280;25997;50.214;19.354;2023-05-19T00:35:29;98699.34;;;8.94;61.87
40285;BME280;25997;50.214;19.354;2023-05-19T00:38:33;98696.91;;;8.99;61.92
40285;BME280;25997;50.214;19.354;2023-05-19T00:41:36;98686.56;;;9.02;62.13
40285;BME280;25997;50.214;19.354;2023-05-19T00:44:39;98686.50;;;9.00;61.73
40285;BME280;25997;50.214;19.354;2023-05-19T00:48:01;98689.09;;;9.00;61.72
40285;BME280;25997;50.214;19.354;2023-05-19T00:51:27;98686.44;;;8.99;61.63
40285;BME280;25997;50.214;19.354;2023-05-19T00:54:50;98682.91;;;8.98;61.53
40285;BME280;25997;50.214;19.354;2023-05-19T00:58:11;98688.66;;;8.90;61.56
40285;BME280;25997;50.214;19.354;2023-05-19T01:01:33;98684.31;;;8.90;61.88
40285;BME280;25997;50.214;19.354;2023-05-19T01:04:56;98689.81;;;8.96;61.79
40285;BME280;25997;50.214;19.354;2023-05-19T01:08:19;98685.78;;;9.04;62.07
40285;BME280;25997;50.214;19.354;2023-05-19T01:11:40;98678.81;;;9.05;61.58
40285;BME280;25997;50.214;19.354;2023-05-19T01:15:02;98684.00;;;9.03;61.97
40285;BME280;25997;50.214;19.354;2023-05-19T01:18:31;98685.16;;;9.10;61.88
40285;BME280;25997;50.214;19.354;2023-05-19T01:22:11;98680.81;;;9.10;61.53
40285;BME280;25997;50.214;19.354;2023-05-19T01:29:50;98680.38;;;9.00;62.16
40285;BME280;25997;50.214;19.354;2023-05-19T01:33:21;98681.59;;;9.08;61.83
40285;BME280;25997;50.214;19.354;2023-05-19T01:36:43;98673.88;;;9.11;61.81
40285;BME280;25997;50.214;19.354;2023-05-19T01:40:08;98675.50;;;9.09;61.75
40285;BME280;25997;50.214;19.354;2023-05-19T01:43:30;98673.06;;;9.13;61.80
40285;BME280;25997;50.214;19.354;2023-05-19T01:46:51;98662.69;;;9.15;61.84
40285;BME280;25997;50.214;19.354;2023-05-19T01:50:13;98666.34;;;9.20;61.83
40285;BME280;25997;50.214;19.354;2023-05-19T01:53:35;98669.97;;;9.22;61.89
40285;BME280;25997;50.214;19.354;2023-05-19T01:57:03;98664.97;;;9.28;61.72
40285;BME280;25997;50.214;19.354;2023-05-19T02:00:39;98663.06;;;9.24;61.76
40285;BME280;25997;50.214;19.354;2023-05-19T02:04:13;98662.97;;;9.22;61.43
40285;BME280;25997;50.214;19.354;2023-05-19T02:07:43;98660.06;;;9.15;61.52
40285;BME280;25997;50.214;19.354;2023-05-19T02:10:54;98655.59;;;9.12;61.90
40285;BME280;25997;50.214;19.354;2023-05-19T02:14:01;98646.88;;;9.13;61.66
40285;BME280;25997;50.214;19.354;2023-05-19T02:17:28;98639.69;;;9.08;61.56
40285;BME280;25997;50.214;19.354;2023-05-19T02:20:33;98639.44;;;9.02;61.82
40285;BME280;25997;50.214;19.354;2023-05-19T02:23:37;98644.53;;;8.99;61.92
40285;BME280;25997;50.214;19.354;2023-05-19T02:26:39;98637.28;;;8.93;61.68
40285;BME280;25997;50.214;19.354;2023-05-19T02:29:57;98639.44;;;8.83;62.04
40285;BME280;25997;50.214;19.354;2023-05-19T02:32:59;98639.25;;;8.78;62.02
40285;BME280;25997;50.214;19.354;2023-05-19T02:36:02;98632.28;;;8.79;61.71
40285;BME280;25997;50.214;19.354;2023-05-19T02:39:05;98629.72;;;8.80;61.91
40285;BME280;25997;50.214;19.354;2023-05-19T02:42:08;98634.16;;;8.81;61.71
40285;BME280;25997;50.214;19.354;2023-05-19T02:45:12;98636.72;;;8.80;61.59
40285;BME280;25997;50.214;19.354;2023-05-19T02:48:15;98635.66;;;8.76;61.67
40285;BME280;25997;50.214;19.354;2023-05-19T02:51:17;98630.44;;;8.76;61.68
40285;BME280;25997;50.214;19.354;2023-05-19T02:54:38;98635.66;;;8.76;61.79
40285;BME280;25997;50.214;19.354;2023-05-19T02:57:41;98633.91;;;8.75;61.71
40285;BME280;25997;50.214;19.354;2023-05-19T03:00:43;98639.13;;;8.75;61.98
40285;BME280;25997;50.214;19.354;2023-05-19T03:04:04;98630.44;;;8.76;61.64
40285;BME280;25997;50.214;19.354;2023-05-19T03:07:25;98634.72;;;8.74;61.74
40285;BME280;25997;50.214;19.354;2023-05-19T03:10:48;98631.28;;;8.75;61.53
40285;BME280;25997;50.214;19.354;2023-05-19T03:14:09;98634.16;;;8.81;61.52
40285;BME280;25997;50.214;19.354;2023-05-19T03:17:30;98636.06;;;8.85;61.59
40285;BME280;25997;50.214;19.354;2023-05-19T03:20:52;98645.16;;;8.93;61.73
40285;BME280;25997;50.214;19.354;2023-05-19T03:24:14;98644.53;;;8.99;61.49
40285;BME280;25997;50.214;19.354;2023-05-19T03:27:18;98640.28;;;9.02;61.41
40285;BME280;25997;50.214;19.354;2023-05-19T03:30:21;98641.53;;;9.10;61.60
40285;BME280;25997;50.214;19.354;2023-05-19T03:34:07;98652.50;;;9.22;61.52
40285;BME280;25997;50.214;19.354;2023-05-19T03:37:27;98655.13;;;9.22;61.29
40285;BME280;25997;50.214;19.354;2023-05-19T03:40:30;98646.38;;;9.22;61.42
40285;BME280;25997;50.214;19.354;2023-05-19T03:43:39;98644.53;;;9.19;61.53
40285;BME280;25997;50.214;19.354;2023-05-19T03:46:44;98641.97;;;9.21;61.68
40285;BME280;25997;50.214;19.354;2023-05-19T03:50:15;98639.19;;;9.18;61.63
40285;BME280;25997;50.214;19.354;2023-05-19T03:53:31;98641.78;;;9.16;61.63
40285;BME280;25997;50.214;19.354;2023-05-19T03:56:38;98642.88;;;9.21;61.93
40285;BME280;25997;50.214;19.354;2023-05-19T03:59:43;98635.28;;;9.29;61.95
40285;BME280;25997;50.214;19.354;2023-05-19T04:02:57;98646.22;;;9.40;61.61
40285;BME280;25997;50.214;19.354;2023-05-19T04:06:00;98642.13;;;9.46;61.73
40285;BME280;25997;50.214;19.354;2023-05-19T04:09:21;98647.84;;;9.58;61.64
40285;BME280;25997;50.214;19.354;2023-05-19T04:12:42;98663.97;;;9.69;61.43
40285;BME280;25997;50.214;19.354;2023-05-19T04:16:06;98655.66;;;9.79;61.50
40285;BME280;25997;50.214;19.354;2023-05-19T04:19:27;98651.69;;;9.88;61.50
40285;BME280;25997;50.214;19.354;2023-05-19T04:22:48;98653.06;;;10.02;61.56
40285;BME280;25997;50.214;19.354;2023-05-19T04:26:09;98653.44;;;10.12;61.16
40285;BME280;25997;50.214;19.354;2023-05-19T04:29:33;98654.75;;;10.23;61.39
40285;BME280;25997;50.214;19.354;2023-05-19T04:32:37;98653.38;;;10.32;61.29
40285;BME280;25997;50.214;19.354;2023-05-19T04:35:41;98658.78;;;10.37;60.99
40285;BME280;25997;50.214;19.354;2023-05-19T04:38:46;98653.56;;;10.38;60.87
40285;BME280;25997;50.214;19.354;2023-05-19T04:41:50;98662.31;;;10.37;60.79
40285;BME280;25997;50.214;19.354;2023-05-19T04:44:54;98658.00;;;10.39;61.11
40285;BME280;25997;50.214;19.354;2023-05-19T04:48:18;98657.31;;;10.45;61.25
40285;BME280;25997;50.214;19.354;2023-05-19T04:51:21;98659.53;;;10.58;61.15
40285;BME280;25997;50.214;19.354;2023-05-19T04:54:47;98659.88;;;10.67;60.85
40285;BME280;25997;50.214;19.354;2023-05-19T04:57:49;98660.97;;;10.73;60.69
40285;BME280;25997;50.214;19.354;2023-05-19T05:00:53;98661.25;;;10.81;60.79
40285;BME280;25997;50.214;19.354;2023-05-19T05:03:59;98660.72;;;10.91;60.95
40285;BME280;25997;50.214;19.354;2023-05-19T05:07:02;98666.25;;;10.99;60.31
40285;BME280;25997;50.214;19.354;2023-05-19T05:10:06;98659.13;;;10.95;60.55
40285;BME280;25997;50.214;19.354;2023-05-19T05:13:27;98657.59;;;11.01;60.53
40285;BME280;25997;50.214;19.354;2023-05-19T05:16:50;98658.72;;;11.09;60.31
40285;BME280;25997;50.214;19.354;2023-05-19T05:20:17;98654.38;;;11.10;60.29
40285;BME280;25997;50.214;19.354;2023-05-19T05:23:40;98664.78;;;11.07;60.38
40285;BME280;25997;50.214;19.354;2023-05-19T05:27:02;98669.38;;;11.12;60.26
40285;BME280;25997;50.214;19.354;2023-05-19T05:30:07;98670.28;;;11.13;60.06
40285;BME280;25997;50.214;19.354;2023-05-19T05:33:11;98666.06;;;11.18;60.12
40285;BME280;25997;50.214;19.354;2023-05-19T05:36:17;98671.38;;;11.19;60.07
40285;BME280;25997;50.214;19.354;2023-05-19T05:39:37;98679.75;;;11.09;60.00
40285;BME280;25997;50.214;19.354;2023-05-19T05:42:40;98677.91;;;11.07;60.20
40285;BME280;25997;50.214;19.354;2023-05-19T05:45:43;98681.25;;;11.01;60.24
40285;BME280;25997;50.214;19.354;2023-05-19T05:48:46;98674.91;;;10.96;60.25
40285;BME280;25997;50.214;19.354;2023-05-19T05:51:50;98679.28;;;10.96;60.38
40285;BME280;25997;50.214;19.354;2023-05-19T05:55:08;98682.19;;;11.03;60.16
40285;BME280;25997;50.214;19.354;2023-05-19T05:58:11;98671.88;;;11.09;60.31
40285;BME280;25997;50.214;19.354;2023-05-19T06:01:14;98667.69;;;11.14;60.21
40285;BME280;25997;50.214;19.354;2023-05-19T06:04:18;98670.34;;;11.14;60.26
40285;BME280;25997;50.214;19.354;2023-05-19T06:07:23;98679.34;;;11.22;60.30
40285;BME280;25997;50.214;19.354;2023-05-19T06:10:27;98678.66;;;11.26;60.05
40285;BME280;25997;50.214;19.354;2023-05-19T06:13:30;98682.53;;;11.37;60.03
40285;BME280;25997;50.214;19.354;2023-05-19T06:16:32;98684.63;;;11.49;60.05
40285;BME280;25997;50.214;19.354;2023-05-19T06:19:35;98689.03;;;11.49;60.10
40285;BME280;25997;50.214;19.354;2023-05-19T06:22:38;98690.94;;;11.54;60.10
40285;BME280;25997;50.214;19.354;2023-05-19T06:25:42;98691.13;;;11.60;59.68
40285;BME280;25997;50.214;19.354;2023-05-19T06:28:45;98695.59;;;11.63;59.88
40285;BME280;25997;50.214;19.354;2023-05-19T06:31:48;98695.81;;;11.69;59.83
40285;BME280;25997;50.214;19.354;2023-05-19T06:35:10;98698.59;;;11.73;59.57
40285;BME280;25997;50.214;19.354;2023-05-19T06:38:32;98699.13;;;11.63;59.26
40285;BME280;25997;50.214;19.354;2023-05-19T06:41:53;98704.44;;;11.65;59.75
40285;BME280;25997;50.214;19.354;2023-05-19T06:45:40;98694.94;;;11.68;59.18
40285;BME280;25997;50.214;19.354;2023-05-19T06:49:01;98703.13;;;11.77;59.53
40285;BME280;25997;50.214;19.354;2023-05-19T06:52:26;98690.97;;;11.82;59.53
40285;BME280;25997;50.214;19.354;2023-05-19T06:55:30;98692.78;;;11.83;59.44
40285;BME280;25997;50.214;19.354;2023-05-19T06:58:33;98689.50;;;11.90;59.22
40285;BME280;25997;50.214;19.354;2023-05-19T07:01:39;98694.66;;;11.87;58.93
40285;BME280;25997;50.214;19.354;2023-05-19T07:04:41;98700.19;;;11.96;59.24
40285;BME280;25997;50.214;19.354;2023-05-19T07:07:46;98695.97;;;12.01;59.11
40285;BME280;25997;50.214;19.354;2023-05-19T07:11:12;98687.81;;;12.21;59.22
40285;BME280;25997;50.214;19.354;2023-05-19T07:14:35;98698.88;;;12.37;58.81
40285;BME280;25997;50.214;19.354;2023-05-19T07:17:58;98701.66;;;12.43;58.71
40285;BME280;25997;50.214;19.354;2023-05-19T07:21:18;98693.06;;;12.49;58.61
40285;BME280;25997;50.214;19.354;2023-05-19T07:24:41;98689.13;;;12.64;58.66
40285;BME280;25997;50.214;19.354;2023-05-19T07:27:45;98687.75;;;12.78;58.51
40285;BME280;25997;50.214;19.354;2023-05-19T07:31:07;98694.06;;;12.85;58.15
40285;BME280;25997;50.214;19.354;2023-05-19T07:34:09;98694.97;;;12.85;57.98
40285;BME280;25997;50.214;19.354;2023-05-19T07:37:12;98691.31;;;12.80;57.85
40285;BME280;25997;50.214;19.354;2023-05-19T07:40:15;98688.69;;;12.80;57.98
40285;BME280;25997;50.214;19.354;2023-05-19T07:43:19;98680.88;;;12.83;57.86
40285;BME280;25997;50.214;19.354;2023-05-19T07:46:41;98680.38;;;12.98;58.09
40285;BME280;25997;50.214;19.354;2023-05-19T07:49:43;98683.41;;;13.12;57.72
40285;BME280;25997;50.214;19.354;2023-05-19T07:52:45;98691.66;;;13.24;57.65
40285;BME280;25997;50.214;19.354;2023-05-19T07:55:48;98693.16;;;13.48;57.51
40285;BME280;25997;50.214;19.354;2023-05-19T07:58:52;98691.00;;;13.68;57.22
40285;BME280;25997;50.214;19.354;2023-05-19T08:01:54;98695.53;;;13.74;56.33
40285;BME280;25997;50.214;19.354;2023-05-19T08:05:16;98691.84;;;13.67;55.73
40285;BME280;25997;50.214;19.354;2023-05-19T08:08:19;98692.72;;;13.66;56.40
40285;BME280;25997;50.214;19.354;2023-05-19T08:11:21;98693.53;;;13.63;56.01
40285;BME280;25997;50.214;19.354;2023-05-19T08:14:41;98691.41;;;13.49;56.04
40285;BME280;25997;50.214;19.354;2023-05-19T08:17:44;98692.25;;;13.46;56.17
40285;BME280;25997;50.214;19.354;2023-05-19T08:20:46;98703.59;;;13.44;56.00
40285;BME280;25997;50.214;19.354;2023-05-19T08:23:49;98693.00;;;13.42;55.92
40285;BME280;25997;50.214;19.354;2023-05-19T08:26:51;98700.09;;;13.45;56.01
40285;BME280;25997;50.214;19.354;2023-05-19T08:30:14;98703.78;;;13.51;55.96
40285;BME280;25997;50.214;19.354;2023-05-19T08:33:17;98701.94;;;13.49;56.00
40285;BME280;25997;50.214;19.354;2023-05-19T08:36:40;98703.91;;;13.56;56.10
40285;BME280;25997;50.214;19.354;2023-05-19T08:39:45;98706.84;;;13.68;56.16
40285;BME280;25997;50.214;19.354;2023-05-19T08:42:47;98706.09;;;13.74;55.75
40285;BME280;25997;50.214;19.354;2023-05-19T08:45:51;98710.53;;;13.75;55.72
40285;BME280;25997;50.214;19.354;2023-05-19T08:49:12;98709.72;;;13.77;55.68
40285;BME280;25997;50.214;19.354;2023-05-19T08:52:37;98704.75;;;13.91;55.92
40285;BME280;25997;50.214;19.354;2023-05-19T08:55:47;98706.06;;;14.08;56.22
40285;BME280;25997;50.214;19.354;2023-05-19T08:59:11;98703.88;;;14.27;55.82
40285;BME280;25997;50.214;19.354;2023-05-19T09:02:32;98706.63;;;14.33;55.19
40285;BME280;25997;50.214;19.354;2023-05-19T09:05:34;98706.84;;;14.43;54.86
40285;BME280;25997;50.214;19.354;2023-05-19T09:08:37;98716.53;;;14.42;54.40
40285;BME280;25997;50.214;19.354;2023-05-19T09:11:40;98717.38;;;14.41;54.33
40285;BME280;25997;50.214;19.354;2023-05-19T09:14:46;98715.78;;;14.49;54.53
40285;BME280;25997;50.214;19.354;2023-05-19T09:17:50;98711.50;;;14.54;54.42
40285;BME280;25997;50.214;19.354;2023-05-19T09:20:56;98707.41;;;14.70;54.37
40285;BME280;25997;50.214;19.354;2023-05-19T09:24:03;98712.69;;;14.68;53.86
40285;BME280;25997;50.214;19.354;2023-05-19T09:27:06;98722.94;;;14.53;53.76
40285;BME280;25997;50.214;19.354;2023-05-19T09:30:09;98708.94;;;14.59;54.40
40285;BME280;25997;50.214;19.354;2023-05-19T09:33:34;98715.38;;;14.71;53.78
40285;BME280;25997;50.214;19.354;2023-05-19T09:36:55;98721.50;;;14.69;54.03
40285;BME280;25997;50.214;19.354;2023-05-19T09:40:18;98724.78;;;14.57;53.72
40285;BME280;25997;50.214;19.354;2023-05-19T09:43:39;98715.84;;;14.51;54.01
40285;BME280;25997;50.214;19.354;2023-05-19T09:47:00;98715.22;;;14.64;54.37
40285;BME280;25997;50.214;19.354;2023-05-19T09:50:22;98721.50;;;14.69;54.17
40285;BME280;25997;50.214;19.354;2023-05-19T09:53:40;98718.00;;;14.70;53.91
40285;BME280;25997;50.214;19.354;2023-05-19T09:56:44;98712.50;;;14.61;53.79
40285;BME280;25997;50.214;19.354;2023-05-19T09:59:47;98710.66;;;14.57;54.17
40285;BME280;25997;50.214;19.354;2023-05-19T10:02:49;98716.97;;;14.63;54.31
40285;BME280;25997;50.214;19.354;2023-05-19T10:06:13;98711.06;;;14.75;54.17
40285;BME280;25997;50.214;19.354;2023-05-19T10:09:30;98718.88;;;14.69;54.11
40285;BME280;25997;50.214;19.354;2023-05-19T10:12:50;98703.03;;;14.72;54.24
40285;BME280;25997;50.214;19.354;2023-05-19T10:15:53;98704.75;;;14.68;53.88
40285;BME280;25997;50.214;19.354;2023-05-19T10:18:58;98706.63;;;14.74;53.94
40285;BME280;25997;50.214;19.354;2023-05-19T10:22:22;98701.47;;;14.80;53.93
40285;BME280;25997;50.214;19.354;2023-05-19T10:25:41;98702.56;;;14.89;54.15
40285;BME280;25997;50.214;19.354;2023-05-19T10:29:04;98696.59;;;14.99;53.90
40285;BME280;25997;50.214;19.354;2023-05-19T10:32:28;98694.94;;;15.06;53.79
40285;BME280;25997;50.214;19.354;2023-05-19T10:36:04;98690.63;;;15.11;53.07
40285;BME280;25997;50.214;19.354;2023-05-19T10:39:16;98701.91;;;15.01;53.42
40285;BME280;25997;50.214;19.354;2023-05-19T10:42:46;98701.78;;;14.95;53.04
40285;BME280;25997;50.214;19.354;2023-05-19T10:46:10;98702.56;;;14.89;54.09
40285;BME280;25997;50.214;19.354;2023-05-19T10:49:19;98695.81;;;15.05;53.33
40285;BME280;25997;50.214;19.354;2023-05-19T10:52:23;98696.06;;;15.19;53.78
40285;BME280;25997;50.214;19.354;2023-05-19T10:55:46;98696.50;;;15.43;53.38
40285;BME280;25997;50.214;19.354;2023-05-19T10:58:49;98694.16;;;15.61;53.31
40285;BME280;25997;50.214;19.354;2023-05-19T11:01:52;98688.50;;;15.91;53.25
40285;BME280;25997;50.214;19.354;2023-05-19T11:05:06;98696.75;;;16.10;52.13
40285;BME280;25997;50.214;19.354;2023-05-19T11:08:10;98690.53;;;16.10;51.93
40285;BME280;25997;50.214;19.354;2023-05-19T11:11:15;98681.75;;;16.11;51.82
40285;BME280;25997;50.214;19.354;2023-05-19T11:14:19;98689.78;;;16.18;52.50
40285;BME280;25997;50.214;19.354;2023-05-19T11:17:39;98692.41;;;16.17;51.83
40285;BME280;25997;50.214;19.354;2023-05-19T11:20:42;98687.13;;;16.17;51.35
40285;BME280;25997;50.214;19.354;2023-05-19T11:23:45;98689.84;;;16.23;51.80
40285;BME280;25997;50.214;19.354;2023-05-19T11:27:21;98701.56;;;16.40;51.37
40285;BME280;25997;50.214;19.354;2023-05-19T11:30:24;98694.41;;;16.33;51.20
40285;BME280;25997;50.214;19.354;2023-05-19T11:33:26;98684.53;;;16.21;51.21
40285;BME280;25997;50.214;19.354;2023-05-19T11:36:30;98691.44;;;16.09;51.47
40285;BME280;25997;50.214;19.354;2023-05-19T11:39:33;98693.75;;;15.89;51.42
40285;BME280;25997;50.214;19.354;2023-05-19T11:42:37;98700.94;;;15.96;51.63
40285;BME280;25997;50.214;19.354;2023-05-19T11:45:52;98700.97;;;15.98;51.46
40285;BME280;25997;50.214;19.354;2023-05-19T11:48:56;98700.97;;;15.98;51.16
40285;BME280;25997;50.214;19.354;2023-05-19T11:51:59;98700.84;;;15.92;51.43
40285;BME280;25997;50.214;19.354;2023-05-19T11:55:21;98700.75;;;15.84;51.46
40285;BME280;25997;50.214;19.354;2023-05-19T11:58:45;98701.63;;;15.83;51.40
40285;BME280;25997;50.214;19.354;2023-05-19T12:02:15;98707.81;;;15.85;51.00
40285;BME280;25997;50.214;19.354;2023-05-19T12:05:39;98697.31;;;15.91;51.46
40285;BME280;25997;50.214;19.354;2023-05-19T12:09:00;98701.97;;;16.06;51.07
40285;BME280;25997;50.214;19.354;2023-05-19T12:12:03;98700.16;;;16.05;51.32
40285;BME280;25997;50.214;19.354;2023-05-19T12:15:08;98700.25;;;16.09;51.42
40285;BME280;25997;50.214;19.354;2023-05-19T12:18:11;98700.78;;;15.86;51.10
40285;BME280;25997;50.214;19.354;2023-05-19T12:21:14;98697.16;;;15.81;51.53
40285;BME280;25997;50.214;19.354;2023-05-19T12:24:17;98697.16;;;15.81;51.48
40285;BME280;25997;50.214;19.354;2023-05-19T12:27:22;98691.09;;;15.88;51.16
40285;BME280;25997;50.214;19.354;2023-05-19T12:30:28;98683.22;;;15.94;51.38
40285;BME280;25997;50.214;19.354;2023-05-19T12:33:49;98686.72;;;15.91;51.08
40285;BME280;25997;50.214;19.354;2023-05-19T12:37:11;98680.47;;;15.86;51.70
40285;BME280;25997;50.214;19.354;2023-05-19T12:40:15;98686.63;;;15.84;51.60
40285;BME280;25997;50.214;19.354;2023-05-19T12:43:19;98683.06;;;15.82;51.66
40285;BME280;25997;50.214;19.354;2023-05-19T12:46:23;98681.31;;;15.84;51.57
40285;BME280;25997;50.214;19.354;2023-05-19T12:49:25;98675.88;;;15.74;51.22
40285;BME280;25997;50.214;19.354;2023-05-19T12:52:29;98676.63;;;15.66;51.59
40285;BME280;25997;50.214;19.354;2023-05-19T12:55:37;98682.03;;;15.73;51.02
40285;BME280;25997;50.214;19.354;2023-05-19T12:58:40;98686.41;;;15.71;51.32
40285;BME280;25997;50.214;19.354;2023-05-19T13:01:44;98680.19;;;15.68;51.38
40285;BME280;25997;50.214;19.354;2023-05-19T13:04:47;98678.28;;;15.61;51.03
40285;BME280;25997;50.214;19.354;2023-05-19T13:07:53;98678.41;;;15.67;51.23
40285;BME280;25997;50.214;19.354;2023-05-19T13:10:56;98675.78;;;15.68;51.28
40285;BME280;25997;50.214;19.354;2023-05-19T13:13:58;98673.31;;;15.81;51.44
40285;BME280;25997;50.214;19.354;2023-05-19T13:17:02;98676.25;;;16.00;51.08
40285;BME280;25997;50.214;19.354;2023-05-19T13:20:06;98677.16;;;15.99;50.83
40285;BME280;25997;50.214;19.354;2023-05-19T13:23:09;98667.66;;;16.16;51.28
40285;BME280;25997;50.214;19.354;2023-05-19T13:26:30;98666.88;;;16.23;50.67
40285;BME280;25997;50.214;19.354;2023-05-19T13:29:51;98667.72;;;16.21;50.78
40285;BME280;25997;50.214;19.354;2023-05-19T13:33:14;98662.53;;;16.28;50.82
40285;BME280;25997;50.214;19.354;2023-05-19T13:36:35;98664.34;;;16.31;50.92
40285;BME280;25997;50.214;19.354;2023-05-19T13:39:55;98664.38;;;16.34;50.57
40285;BME280;25997;50.214;19.354;2023-05-19T13:42:58;98663.59;;;16.42;50.63
40285;BME280;25997;50.214;19.354;2023-05-19T13:46:00;98662.72;;;16.42;50.48
40285;BME280;25997;50.214;19.354;2023-05-19T13:49:04;98659.84;;;16.27;50.44
40285;BME280;25997;50.214;19.354;2023-05-19T13:52:07;98662.44;;;16.22;50.70
40285;BME280;25997;50.214;19.354;2023-05-19T13:55:09;98665.78;;;16.09;50.51
40285;BME280;25997;50.214;19.354;2023-05-19T13:58:11;98659.56;;;16.04;50.92
40285;BME280;25997;50.214;19.354;2023-05-19T14:01:14;98663.88;;;15.98;51.27
40285;BME280;25997;50.214;19.354;2023-05-19T14:04:18;98671.13;;;16.11;50.91
40285;BME280;25997;50.214;19.354;2023-05-19T14:07:21;98669.34;;;16.10;50.60
40285;BME280;25997;50.214;19.354;2023-05-19T14:10:23;98668.63;;;16.21;50.70
40285;BME280;25997;50.214;19.354;2023-05-19T14:13:26;98667.72;;;16.19;50.65
40285;BME280;25997;50.214;19.354;2023-05-19T14:16:29;98664.81;;;16.01;51.00
40285;BME280;25997;50.214;19.354;2023-05-19T14:19:33;98668.13;;;15.87;50.99
40285;BME280;25997;50.214;19.354;2023-05-19T14:22:35;98675.06;;;15.78;51.11
40285;BME280;25997;50.214;19.354;2023-05-19T14:25:37;98669.69;;;15.74;51.40
40285;BME280;25997;50.214;19.354;2023-05-19T14:28:40;98673.88;;;15.61;51.52
40285;BME280;25997;50.214;19.354;2023-05-19T14:31:42;98679.91;;;15.53;51.54
40285;BME280;25997;50.214;19.354;2023-05-19T14:34:46;98683.34;;;15.47;51.46
40285;BME280;25997;50.214;19.354;2023-05-19T14:37:52;98675.31;;;15.43;51.59
40285;BME280;25997;50.214;19.354;2023-05-19T14:40:55;98676.97;;;15.38;51.93
40285;BME280;25997;50.214;19.354;2023-05-19T14:43:57;98669.03;;;15.36;52.10
40285;BME280;25997;50.214;19.354;2023-05-19T14:47:00;98673.50;;;15.39;51.80
40285;BME280;25997;50.214;19.354;2023-05-19T14:50:06;98679.59;;;15.33;51.92
40285;BME280;25997;50.214;19.354;2023-05-19T14:53:09;98675.06;;;15.29;52.16
40285;BME280;25997;50.214;19.354;2023-05-19T14:56:12;98679.44;;;15.26;51.97
40285;BME280;25997;50.214;19.354;2023-05-19T14:59:14;98675.91;;;15.27;52.25
40285;BME280;25997;50.214;19.354;2023-05-19T15:02:17;98671.41;;;15.20;51.98
40285;BME280;25997;50.214;19.354;2023-05-19T15:05:20;98683.63;;;15.13;52.14
40285;BME280;25997;50.214;19.354;2023-05-19T15:08:24;98685.31;;;15.10;52.27
40285;BME280;25997;50.214;19.354;2023-05-19T15:11:26;98680.91;;;15.09;52.59
40285;BME280;25997;50.214;19.354;2023-05-19T15:14:47;98678.19;;;15.05;52.27
40285;BME280;25997;50.214;19.354;2023-05-19T15:18:08;98677.09;;;14.96;52.29
40285;BME280;25997;50.214;19.354;2023-05-19T15:21:31;98674.44;;;14.94;52.62
40285;BME280;25997;50.214;19.354;2023-05-19T15:24:52;98683.22;;;14.92;52.69
40285;BME280;25997;50.214;19.354;2023-05-19T15:28:13;98683.22;;;14.92;52.66
40285;BME280;25997;50.214;19.354;2023-05-19T15:31:35;98673.22;;;14.79;52.50
40285;BME280;25997;50.214;19.354;2023-05-19T15:34:56;98680.22;;;14.75;52.74
40285;BME280;25997;50.214;19.354;2023-05-19T15:38:19;98672.97;;;14.67;53.00
40285;BME280;25997;50.214;19.354;2023-05-19T15:41:40;98671.13;;;14.63;53.13
40285;BME280;25997;50.214;19.354;2023-05-19T15:45:01;98678.06;;;14.56;52.93
40285;BME280;25997;50.214;19.354;2023-05-19T15:48:21;98680.75;;;14.58;53.07
40285;BME280;25997;50.214;19.354;2023-05-19T15:51:42;98677.13;;;14.54;53.57
40285;BME280;25997;50.214;19.354;2023-05-19T15:55:07;98666.44;;;14.48;53.45
40285;BME280;25997;50.214;19.354;2023-05-19T15:58:28;98667.16;;;14.40;53.43
40285;BME280;25997;50.214;19.354;2023-05-19T16:01:49;98667.91;;;14.35;53.47
40285;BME280;25997;50.214;19.354;2023-05-19T16:05:10;98666.69;;;14.20;53.68
40285;BME280;25997;50.214;19.354;2023-05-19T16:08:31;98674.47;;;14.12;53.95
40285;BME280;25997;50.214;19.354;2023-05-19T16:11:53;98676.13;;;14.07;54.15
40285;BME280;25997;50.214;19.354;2023-05-19T16:14:56;98676.78;;;13.97;54.10
40285;BME280;25997;50.214;19.354;2023-05-19T16:17:58;98681.94;;;13.94;54.07
40285;BME280;25997;50.214;19.354;2023-05-19T16:21:01;98692.22;;;13.82;54.46
40285;BME280;25997;50.214;19.354;2023-05-19T16:24:03;98690.25;;;13.74;54.71
40285;BME280;25997;50.214;19.354;2023-05-19T16:27:07;98689.38;;;13.73;54.49
40285;BME280;25997;50.214;19.354;2023-05-19T16:30:11;98699.84;;;13.69;54.66
40285;BME280;25997;50.214;19.354;2023-05-19T16:33:13;98692.63;;;13.63;54.68
40285;BME280;25997;50.214;19.354;2023-05-19T16:36:16;98689.06;;;13.59;54.87
40285;BME280;25997;50.214;19.354;2023-05-19T16:39:18;98689.88;;;13.58;54.82
40285;BME280;25997;50.214;19.354;2023-05-19T16:42:22;98697.78;;;13.57;54.98
40285;BME280;25997;50.214;19.354;2023-05-19T16:45:25;98688.84;;;13.52;54.96
40285;BME280;25997;50.214;19.354;2023-05-19T16:48:27;98686.06;;;13.46;55.02